createdAt,value
2022-12-15T00:02:35.031Z,-4.30
2022-12-15T00:05:22.837Z,-4.30
2022-12-15T00:08:08.310Z,-4.40
2022-12-15T00:10:54.239Z,-4.50
2022-12-15T00:13:39.787Z,-4.50
2022-12-15T00:16:25.776Z,-4.40
2022-12-15T00:19:11.602Z,-4.50
2022-12-15T00:21:58.196Z,-4.40
2022-12-15T00:24:43.568Z,-4.60
2022-12-15T00:27:29.173Z,-4.70
2022-12-15T00:30:14.461Z,-4.70
2022-12-15T00:32:59.921Z,-4.90
2022-12-15T00:35:45.360Z,-5.00
2022-12-15T00:38:33.786Z,-5.30
2022-12-15T00:41:02.056Z,-5.60
2022-12-15T00:43:31.483Z,-5.40
2022-12-15T00:46:17.993Z,-5.20
2022-12-15T00:48:46.182Z,-5.10
2022-12-15T00:51:13.892Z,-5.20
2022-12-15T00:54:01.394Z,-5.20
2022-12-15T00:56:46.881Z,-5.30
2022-12-15T00:59:33.067Z,-5.40
2022-12-15T01:02:19.113Z,-5.30
2022-12-15T01:05:04.555Z,-5.40
2022-12-15T01:07:50.247Z,-5.20
2022-12-15T01:10:38.063Z,-5.10
2022-12-15T01:13:24.001Z,-5.30
2022-12-15T01:16:09.665Z,-5.50
2022-12-15T01:18:55.301Z,-5.20
2022-12-15T01:21:25.004Z,-5.00
2022-12-15T01:23:53.332Z,-4.80
2022-12-15T01:26:22.455Z,-4.60
2022-12-15T01:28:50.328Z,-4.40
2022-12-15T01:31:18.230Z,-4.10
2022-12-15T01:33:46.124Z,-3.70
2022-12-15T01:36:14.228Z,-3.30
2022-12-15T01:38:42.648Z,-3.10
2022-12-15T01:41:10.993Z,-3.00
2022-12-15T01:43:41.890Z,-2.90
2022-12-15T01:46:11.159Z,-3.00
2022-12-15T01:48:49.936Z,-3.00
2022-12-15T01:51:24.729Z,-3.20
2022-12-15T01:54:05.281Z,-3.30
2022-12-15T01:56:37.938Z,-3.40
2022-12-15T01:59:10.239Z,-3.50
2022-12-15T02:01:39.313Z,-3.60
2022-12-15T02:04:07.635Z,-3.40
2022-12-15T02:06:37.255Z,-3.40
2022-12-15T02:09:05.978Z,-3.40
2022-12-15T02:11:48.749Z,-3.30
2022-12-15T02:14:26.297Z,-3.20
2022-12-15T02:17:06.317Z,-3.40
2022-12-15T02:20:23.252Z,-3.50
2022-12-15T02:23:28.161Z,-3.70
2022-12-15T02:26:20.039Z,-3.70
2022-12-15T02:28:59.620Z,-3.70
2022-12-15T02:31:51.058Z,-3.60
2022-12-15T02:34:27.879Z,-3.40
2022-12-15T02:36:59.222Z,-3.20
2022-12-15T02:39:27.400Z,-3.10
2022-12-15T02:41:55.466Z,-3.00
2022-12-15T02:44:27.974Z,-2.90
2022-12-15T02:47:29.207Z,-2.90
2022-12-15T02:50:12.393Z,-2.90
2022-12-15T02:52:54.224Z,-2.80
2022-12-15T02:55:35.200Z,-2.80
2022-12-15T02:58:09.060Z,-2.50
2022-12-15T03:00:41.952Z,-2.40
2022-12-15T03:03:12.419Z,-2.40
2022-12-15T03:05:40.329Z,-2.60
2022-12-15T03:08:09.167Z,-2.80
2022-12-15T03:10:37.041Z,-3.00
2022-12-15T03:13:04.997Z,-3.10
2022-12-15T03:15:35.570Z,-3.10
2022-12-15T03:18:03.765Z,-3.20
2022-12-15T03:20:32.992Z,-3.20
2022-12-15T03:23:01.867Z,-3.20
2022-12-15T03:25:30.144Z,-3.20
2022-12-15T03:27:58.316Z,-3.20
2022-12-15T03:30:26.273Z,-3.30
2022-12-15T03:32:54.114Z,-3.20
2022-12-15T03:35:21.930Z,-3.30
2022-12-15T03:37:51.098Z,-3.30
2022-12-15T03:40:18.868Z,-3.40
2022-12-15T03:42:49.414Z,-3.50
2022-12-15T03:45:18.284Z,-3.50
2022-12-15T03:47:46.663Z,-3.50
2022-12-15T03:50:16.222Z,-3.50
2022-12-15T03:52:44.478Z,-3.50
2022-12-15T03:55:13.586Z,-3.70
2022-12-15T03:57:42.093Z,-3.70
2022-12-15T04:00:12.657Z,-3.70
2022-12-15T04:02:40.636Z,-3.70
2022-12-15T04:05:09.795Z,-3.80
2022-12-15T04:07:37.593Z,-4.00
2022-12-15T04:10:06.117Z,-4.00
2022-12-15T04:12:35.273Z,-4.10
2022-12-15T04:15:03.052Z,-4.10
2022-12-15T04:17:30.867Z,-4.10
2022-12-15T04:20:10.848Z,-4.10
2022-12-15T04:22:39.851Z,-4.10
2022-12-15T04:25:26.929Z,-4.10
2022-12-15T04:28:13.490Z,-4.20
2022-12-15T04:31:02.693Z,-4.00
2022-12-15T04:33:48.565Z,-4.00
2022-12-15T04:36:34.569Z,-4.10
2022-12-15T04:39:22.259Z,-4.00
2022-12-15T04:42:07.810Z,-4.10
2022-12-15T04:44:54.855Z,-4.00
2022-12-15T04:47:40.361Z,-4.20
2022-12-15T04:50:26.323Z,-4.40
2022-12-15T04:53:11.877Z,-4.30
2022-12-15T04:55:57.440Z,-4.20
2022-12-15T04:58:42.964Z,-4.10
2022-12-15T05:01:29.788Z,-4.00
2022-12-15T05:04:15.221Z,-4.00
2022-12-15T05:07:00.603Z,-4.20
2022-12-15T05:09:45.981Z,-4.40
2022-12-15T05:12:31.524Z,-4.30
2022-12-15T05:15:17.032Z,-4.40
2022-12-15T05:18:03.729Z,-4.40
2022-12-15T05:20:50.038Z,-4.40
2022-12-15T05:23:35.551Z,-4.40
2022-12-15T05:26:20.947Z,-4.40
2022-12-15T05:29:06.530Z,-4.40
2022-12-15T05:31:52.910Z,-4.40
2022-12-15T05:34:26.116Z,-4.30
2022-12-15T05:36:54.942Z,-4.30
2022-12-15T05:39:23.298Z,-4.00
2022-12-15T05:41:51.954Z,-3.80
2022-12-15T05:44:20.118Z,-3.50
2022-12-15T05:46:48.540Z,-3.10
2022-12-15T05:49:17.633Z,-2.90
2022-12-15T05:51:48.807Z,-2.70
2022-12-15T05:54:18.873Z,-2.70
2022-12-15T05:56:47.076Z,-2.60
2022-12-15T05:59:18.974Z,-2.50
2022-12-15T06:01:47.111Z,-2.50
2022-12-15T06:04:15.274Z,-2.60
2022-12-15T06:06:43.589Z,-2.50
2022-12-15T06:09:12.972Z,-2.50
2022-12-15T06:11:40.802Z,-2.50
2022-12-15T06:14:08.639Z,-2.40
2022-12-15T06:16:42.617Z,-2.30
2022-12-15T06:19:18.329Z,-2.20
2022-12-15T06:21:46.139Z,-2.20
2022-12-15T06:24:15.322Z,-2.20
2022-12-15T06:26:43.112Z,-2.30
2022-12-15T06:29:13.540Z,-2.40
2022-12-15T06:31:42.702Z,-2.50
2022-12-15T06:34:13.690Z,-2.60
2022-12-15T06:36:41.886Z,-2.80
2022-12-15T06:39:13.042Z,-2.90
2022-12-15T06:41:42.948Z,-2.90
2022-12-15T06:44:14.768Z,-2.90
2022-12-15T06:46:43.087Z,-3.00
2022-12-15T06:49:11.048Z,-3.00
2022-12-15T06:51:38.880Z,-3.00
2022-12-15T06:54:06.765Z,-3.00
2022-12-15T06:56:36.592Z,-2.90
2022-12-15T06:59:07.298Z,-2.70
2022-12-15T07:01:35.952Z,-2.50
2022-12-15T07:04:05.403Z,-2.40
2022-12-15T07:06:37.224Z,-2.10
2022-12-15T07:09:07.622Z,-1.90
2022-12-15T07:11:35.662Z,-1.80
2022-12-15T07:14:05.744Z,-1.70
2022-12-15T07:16:33.866Z,-1.60
2022-12-15T07:19:01.809Z,-1.60
2022-12-15T07:21:29.601Z,-1.60
2022-12-15T07:23:58.417Z,-1.50
2022-12-15T07:26:26.983Z,-1.50
2022-12-15T07:28:55.009Z,-1.30
2022-12-15T07:31:24.338Z,-1.20
2022-12-15T07:33:54.319Z,-1.30
2022-12-15T07:36:22.203Z,-1.20
2022-12-15T07:38:51.179Z,-1.00
2022-12-15T07:41:20.709Z,-1.10
2022-12-15T07:43:48.892Z,-1.30
2022-12-15T07:46:17.121Z,-1.40
2022-12-15T07:48:50.569Z,-1.40
2022-12-15T07:51:20.854Z,-1.50
2022-12-15T07:53:50.470Z,-1.50
2022-12-15T07:56:19.581Z,-1.60
2022-12-15T07:58:48.037Z,-1.70
2022-12-15T08:01:16.467Z,-1.80
2022-12-15T08:03:46.242Z,-1.90
2022-12-15T08:06:16.036Z,-2.00
2022-12-15T08:08:50.242Z,-2.10
2022-12-15T08:11:21.028Z,-2.10
2022-12-15T08:14:02.693Z,-2.10
2022-12-15T08:16:32.140Z,-2.00
2022-12-15T08:19:01.387Z,-1.80
2022-12-15T08:21:31.142Z,-1.60
2022-12-15T08:24:00.795Z,-1.40
2022-12-15T08:26:30.933Z,-1.40
2022-12-15T08:29:24.391Z,-1.20
2022-12-15T08:31:50.716Z,-1.10
2022-12-15T08:34:20.018Z,-1.20
2022-12-15T08:36:47.981Z,-1.00
2022-12-15T08:39:16.371Z,-0.70
2022-12-15T08:41:44.227Z,-0.50
2022-12-15T08:44:12.036Z,-0.40
2022-12-15T08:46:39.865Z,-0.20
2022-12-15T08:49:08.619Z,0.00
2022-12-15T08:51:37.777Z,0.20
2022-12-15T08:54:05.607Z,0.30
2022-12-15T08:56:33.768Z,0.20
2022-12-15T08:59:02.832Z,0.30
2022-12-15T09:01:33.089Z,0.50
2022-12-15T09:04:01.428Z,0.70
2022-12-15T09:06:31.122Z,0.80
2022-12-15T09:09:02.111Z,1.00
2022-12-15T09:11:31.016Z,1.10
2022-12-15T09:13:59.348Z,0.80
2022-12-15T09:16:27.830Z,0.70
2022-12-15T09:18:57.209Z,0.60
2022-12-15T09:21:27.016Z,0.70
2022-12-15T09:24:00.087Z,0.80
2022-12-15T09:26:31.591Z,0.90
2022-12-15T09:28:59.650Z,0.90
2022-12-15T09:31:29.476Z,0.80
2022-12-15T09:33:59.267Z,0.70
2022-12-15T09:36:28.095Z,0.80
2022-12-15T09:38:55.994Z,0.90
2022-12-15T09:41:27.081Z,1.00
2022-12-15T09:43:59.995Z,1.00
2022-12-15T09:46:37.659Z,1.00
2022-12-15T09:49:12.394Z,0.90
2022-12-15T09:51:46.046Z,1.20
2022-12-15T09:54:14.087Z,1.40
2022-12-15T09:56:49.694Z,1.70
2022-12-15T09:59:29.982Z,1.90
2022-12-15T10:02:14.648Z,2.00
2022-12-15T10:04:51.078Z,2.10
2022-12-15T10:07:25.160Z,2.30
2022-12-15T10:09:52.986Z,2.50
2022-12-15T10:12:26.244Z,2.30
2022-12-15T10:15:06.786Z,2.50
2022-12-15T10:17:46.361Z,2.70
2022-12-15T10:20:20.491Z,2.80
2022-12-15T10:22:50.391Z,3.00
2022-12-15T10:25:27.544Z,3.00
2022-12-15T10:28:16.177Z,3.10
2022-12-15T10:30:52.596Z,3.20
2022-12-15T10:33:24.108Z,3.40
2022-12-15T10:35:54.338Z,3.50
2022-12-15T10:38:27.029Z,3.60
2022-12-15T10:40:57.220Z,3.60
2022-12-15T10:43:28.861Z,3.50
2022-12-15T10:46:13.459Z,3.60
2022-12-15T10:48:41.504Z,3.80
2022-12-15T10:51:26.021Z,4.00
2022-12-15T10:53:56.172Z,4.30
2022-12-15T10:56:32.839Z,4.40
2022-12-15T10:59:03.519Z,4.40
2022-12-15T11:01:35.688Z,4.60
2022-12-15T11:04:03.931Z,4.70
2022-12-15T11:06:34.110Z,4.70
2022-12-15T11:09:10.879Z,4.80
2022-12-15T11:12:06.048Z,4.70
2022-12-15T11:14:44.595Z,4.60
2022-12-15T11:17:18.442Z,4.50
2022-12-15T11:22:46.578Z,4.30
2022-12-15T11:25:21.923Z,4.00
2022-12-15T11:27:51.510Z,4.30
2022-12-15T11:30:22.182Z,4.40
2022-12-15T11:32:55.615Z,4.60
2022-12-15T11:35:30.252Z,4.50
2022-12-15T11:38:06.971Z,4.80
2022-12-15T11:40:39.297Z,4.90
2022-12-15T11:43:31.857Z,4.90
2022-12-15T11:46:13.047Z,4.90
2022-12-15T11:48:53.804Z,5.00
2022-12-15T11:51:26.975Z,5.00
2022-12-15T11:54:17.709Z,5.20
2022-12-15T11:56:49.020Z,5.50
2022-12-15T11:59:39.495Z,5.60
2022-12-15T12:02:35.804Z,5.80
2022-12-15T12:05:24.575Z,5.90
2022-12-15T12:08:02.562Z,5.90
2022-12-15T12:10:37.971Z,6.20
2022-12-15T12:13:17.404Z,6.20
2022-12-15T12:15:52.479Z,6.40
2022-12-15T12:18:25.882Z,6.40
2022-12-15T12:21:00.997Z,6.10
2022-12-15T12:23:35.386Z,6.10
2022-12-15T12:26:08.393Z,6.10
2022-12-15T12:28:46.621Z,6.00
2022-12-15T12:31:32.091Z,5.80
2022-12-15T12:34:04.341Z,5.80
2022-12-15T12:36:33.454Z,5.70
2022-12-15T12:39:01.573Z,5.70
2022-12-15T12:41:40.346Z,5.60
2022-12-15T12:44:15.201Z,5.50
2022-12-15T12:46:46.185Z,5.50
2022-12-15T12:49:26.874Z,5.60
2022-12-15T12:51:59.432Z,5.90
2022-12-15T12:54:42.574Z,6.00
2022-12-15T12:57:39.557Z,6.40
2022-12-15T13:00:28.901Z,6.60
2022-12-15T13:03:17.310Z,6.50
2022-12-15T13:05:48.815Z,6.60
2022-12-15T13:08:51.644Z,6.20
2022-12-15T13:12:01.081Z,6.40
2022-12-15T13:14:48.218Z,6.40
2022-12-15T13:17:27.265Z,6.30
2022-12-15T13:20:29.696Z,6.40
2022-12-15T13:23:35.311Z,6.40
2022-12-15T13:26:13.862Z,6.30
2022-12-15T13:28:45.953Z,6.30
2022-12-15T13:31:56.099Z,6.30
2022-12-15T13:34:29.199Z,6.30
2022-12-15T13:37:01.946Z,6.20
2022-12-15T13:39:57.177Z,6.10
2022-12-15T13:42:47.285Z,6.20
2022-12-15T13:45:51.078Z,6.00
2022-12-15T13:48:31.030Z,5.90
2022-12-15T13:51:06.647Z,5.90
2022-12-15T13:53:41.629Z,5.80
2022-12-15T13:56:39.185Z,5.50
2022-12-15T13:59:17.448Z,5.60
2022-12-15T14:01:51.269Z,5.60
2022-12-15T14:04:21.246Z,5.70
2022-12-15T14:06:51.567Z,5.70
2022-12-15T14:09:24.048Z,5.60
2022-12-15T14:14:49.464Z,5.70
2022-12-15T14:17:19.278Z,5.60
2022-12-15T14:19:51.077Z,5.50
2022-12-15T14:25:18.713Z,5.40
2022-12-15T14:27:50.738Z,5.20
2022-12-15T14:30:29.222Z,5.20
2022-12-15T14:33:02.663Z,5.10
2022-12-15T14:35:33.392Z,5.00
2022-12-15T14:38:06.714Z,5.00
2022-12-15T14:40:37.567Z,4.90
2022-12-15T14:43:05.796Z,4.70
2022-12-15T14:45:34.962Z,4.70
2022-12-15T14:50:59.420Z,4.50
2022-12-15T14:53:31.275Z,4.20
2022-12-15T14:56:00.627Z,4.10
2022-12-15T14:58:33.386Z,4.10
2022-12-15T15:01:04.180Z,3.90
2022-12-15T15:03:04.702Z,4.50
2022-12-15T15:03:16.049Z,5.70
2022-12-15T15:03:38.999Z,3.90
2022-12-15T15:06:16.627Z,3.70
2022-12-15T15:08:47.292Z,3.70
2022-12-15T15:11:25.083Z,3.60
2022-12-15T15:13:56.671Z,3.60
2022-12-15T15:16:26.320Z,3.60
2022-12-15T15:18:56.843Z,3.40
2022-12-15T15:21:28.096Z,3.10
2022-12-15T15:24:00.327Z,3.10
2022-12-15T15:26:28.846Z,2.90
2022-12-15T15:28:56.939Z,2.90
2022-12-15T15:31:40.442Z,3.00
2022-12-15T15:34:09.616Z,2.60
2022-12-15T15:36:39.405Z,2.50
2022-12-15T15:39:13.655Z,2.40
2022-12-15T15:41:41.716Z,2.40
2022-12-15T15:44:14.417Z,2.40
2022-12-15T15:46:47.749Z,2.30
2022-12-15T15:49:18.595Z,2.40
2022-12-15T15:51:46.644Z,2.40
2022-12-15T15:54:17.598Z,2.20
2022-12-15T15:56:45.495Z,2.20
2022-12-15T15:59:15.114Z,2.20
2022-12-15T16:01:45.076Z,2.10
2022-12-15T16:04:13.162Z,2.00
2022-12-15T16:06:47.070Z,2.00
2022-12-15T16:09:16.931Z,2.00
2022-12-15T16:11:45.869Z,1.90
2022-12-15T16:14:15.197Z,1.80
2022-12-15T16:16:45.145Z,1.90
2022-12-15T16:19:13.268Z,2.00
2022-12-15T16:21:41.578Z,1.90
2022-12-15T16:24:14.130Z,1.70
2022-12-15T16:26:46.115Z,1.60
2022-12-15T16:29:15.863Z,1.70
2022-12-15T16:31:45.977Z,1.60
2022-12-15T16:34:13.950Z,1.60
2022-12-15T16:36:42.210Z,1.50
2022-12-15T16:39:24.614Z,1.50
2022-12-15T16:41:54.619Z,1.50
2022-12-15T16:44:23.071Z,1.60
2022-12-15T16:46:52.302Z,1.50
2022-12-15T16:49:20.153Z,1.50
2022-12-15T16:51:51.278Z,1.20
2022-12-15T16:54:21.808Z,1.00
2022-12-15T16:56:50.101Z,0.80
2022-12-15T16:59:36.080Z,0.80
2022-12-15T17:02:24.452Z,0.80
2022-12-15T17:04:54.971Z,0.90
2022-12-15T17:07:23.288Z,0.90
2022-12-15T17:09:51.643Z,0.80
2022-12-15T17:12:19.925Z,0.80
2022-12-15T17:14:48.045Z,0.80
2022-12-15T17:17:18.850Z,0.80
2022-12-15T17:22:34.982Z,0.60
2022-12-15T17:25:02.847Z,0.70
2022-12-15T17:27:31.663Z,0.70
2022-12-15T17:30:00.900Z,0.70
2022-12-15T17:32:30.019Z,0.70
2022-12-15T17:34:58.090Z,0.70
2022-12-15T17:37:28.094Z,0.60
2022-12-15T17:39:59.730Z,0.60
2022-12-15T17:42:27.502Z,0.50
2022-12-15T17:44:55.265Z,0.50
2022-12-15T17:47:24.676Z,0.40
2022-12-15T17:49:53.764Z,0.30
2022-12-15T17:52:28.285Z,0.40
2022-12-15T17:54:56.683Z,0.00
2022-12-15T17:57:24.613Z,-0.10
2022-12-15T17:59:52.386Z,-0.20
2022-12-15T18:02:20.272Z,-0.20
2022-12-15T18:04:48.218Z,-0.20
2022-12-15T18:07:20.244Z,-0.20
2022-12-15T18:09:48.612Z,-0.30
2022-12-15T18:12:20.497Z,-0.40
2022-12-15T18:14:48.546Z,-0.30
2022-12-15T18:17:16.330Z,-0.30
2022-12-15T18:19:44.863Z,-0.20
2022-12-15T18:22:15.158Z,-0.10
2022-12-15T18:24:44.412Z,-0.20
2022-12-15T18:27:21.416Z,-0.30
2022-12-15T18:29:49.219Z,-0.50
2022-12-15T18:32:17.914Z,-0.50
2022-12-15T18:34:46.520Z,-0.60
2022-12-15T18:37:17.308Z,-0.60
2022-12-15T18:39:46.933Z,-0.60
2022-12-15T18:42:16.358Z,-0.70
2022-12-15T18:44:47.386Z,-0.60
2022-12-15T18:47:17.716Z,-0.60
2022-12-15T18:49:46.065Z,-0.60
2022-12-15T18:52:18.319Z,-0.70
2022-12-15T18:54:48.094Z,-0.70
2022-12-15T18:57:27.861Z,-0.60
2022-12-15T18:59:58.181Z,-0.50
2022-12-15T19:02:26.066Z,-0.50
2022-12-15T19:04:53.937Z,-0.40
2022-12-15T19:07:21.701Z,-0.60
2022-12-15T19:09:51.266Z,-0.60
2022-12-15T19:12:19.158Z,-0.60
2022-12-15T19:14:48.960Z,-0.70
2022-12-15T19:17:36.723Z,-0.70
2022-12-15T19:20:24.984Z,-0.80
2022-12-15T19:22:53.589Z,-0.90
2022-12-15T19:25:26.709Z,-0.90
2022-12-15T19:27:58.784Z,-1.00
2022-12-15T19:30:28.144Z,-1.00
2022-12-15T19:32:55.996Z,-1.10
2022-12-15T19:35:24.657Z,-1.20
2022-12-15T19:37:54.918Z,-1.30
2022-12-15T19:40:30.122Z,-1.40
2022-12-15T19:42:58.235Z,-1.30
2022-12-15T19:45:28.131Z,-1.40
2022-12-15T19:47:56.199Z,-1.40
2022-12-15T19:50:25.508Z,-1.40
2022-12-15T19:52:57.171Z,-1.50
2022-12-15T19:55:28.612Z,-1.30
2022-12-15T19:57:56.526Z,-1.20
2022-12-15T20:00:25.223Z,-1.30
2022-12-15T20:02:54.835Z,-1.30
2022-12-15T20:05:23.877Z,-1.50
2022-12-15T20:07:53.221Z,-1.50
2022-12-15T20:10:29.470Z,-1.40
2022-12-15T20:13:01.824Z,-1.40
2022-12-15T20:15:29.605Z,-1.50
2022-12-15T20:17:57.865Z,-1.30
2022-12-15T20:20:28.442Z,-1.50
2022-12-15T20:22:59.571Z,-1.60
2022-12-15T20:25:30.863Z,-1.60
2022-12-15T20:28:00.186Z,-1.70
2022-12-15T20:30:32.681Z,-1.50
2022-12-15T20:33:00.683Z,-1.50
2022-12-15T20:35:31.033Z,-1.60
2022-12-15T20:37:58.820Z,-1.60
2022-12-15T20:40:28.829Z,-1.70
2022-12-15T20:42:58.094Z,-1.70
2022-12-15T20:45:28.100Z,-1.70
2022-12-15T20:47:57.469Z,-1.80
2022-12-15T20:50:28.764Z,-1.80
2022-12-15T20:52:56.502Z,-1.80
2022-12-15T20:55:24.443Z,-1.90
2022-12-15T20:57:52.268Z,-1.80
2022-12-15T21:00:20.650Z,-1.80
2022-12-15T21:02:49.425Z,-1.80
2022-12-15T21:05:24.006Z,-1.90
2022-12-15T21:07:52.384Z,-1.90
2022-12-15T21:10:21.513Z,-2.00
2022-12-15T21:12:50.977Z,-2.00
2022-12-15T21:15:20.894Z,-2.00
2022-12-15T21:17:57.292Z,-2.00
2022-12-15T21:20:39.650Z,-2.00
2022-12-15T21:23:16.379Z,-2.10
2022-12-15T21:25:44.233Z,-2.10
2022-12-15T21:28:12.533Z,-2.30
2022-12-15T21:30:40.523Z,-2.20
2022-12-15T21:33:08.314Z,-2.20
2022-12-15T21:35:37.383Z,-2.20
2022-12-15T21:38:07.503Z,-2.20
2022-12-15T21:40:35.352Z,-2.30
2022-12-15T21:43:05.482Z,-2.30
2022-12-15T21:45:33.426Z,-2.40
2022-12-15T21:48:18.401Z,-2.50
2022-12-15T21:50:47.813Z,-2.60
2022-12-15T21:53:17.543Z,-2.60
2022-12-15T21:55:47.384Z,-2.40
2022-12-15T21:58:20.353Z,-2.30
2022-12-15T22:00:49.171Z,-2.40
2022-12-15T22:03:17.111Z,-2.40
2022-12-15T22:05:45.220Z,-2.40
2022-12-15T22:08:19.504Z,-2.30
2022-12-15T22:10:49.639Z,-2.20
2022-12-15T22:13:21.676Z,-2.10
2022-12-15T22:15:51.675Z,-2.10
2022-12-15T22:18:22.887Z,-2.30
2022-12-15T22:20:52.333Z,-2.40
2022-12-15T22:23:21.732Z,-2.30
2022-12-15T22:25:54.075Z,-2.30
2022-12-15T22:28:24.952Z,-2.40
2022-12-15T22:30:54.665Z,-2.50
2022-12-15T22:33:24.604Z,-2.50
2022-12-15T22:35:53.687Z,-2.60
2022-12-15T22:38:25.033Z,-2.70
2022-12-15T22:40:55.479Z,-2.60
2022-12-15T22:43:27.799Z,-2.60
2022-12-15T22:45:56.203Z,-2.40
2022-12-15T22:48:28.314Z,-2.40
2022-12-15T22:50:56.054Z,-2.50
2022-12-15T22:53:27.375Z,-2.40
2022-12-15T22:55:55.163Z,-2.50
2022-12-15T22:58:27.497Z,-2.50
2022-12-15T23:00:58.537Z,-2.60
2022-12-15T23:03:29.692Z,-2.60
2022-12-15T23:05:58.568Z,-2.40
2022-12-15T23:08:27.680Z,-2.40
2022-12-15T23:11:12.928Z,-2.60
2022-12-15T23:13:41.073Z,-2.50
2022-12-15T23:16:21.240Z,-2.50
2022-12-15T23:18:51.710Z,-2.70
2022-12-15T23:21:20.987Z,-2.80
2022-12-15T23:23:50.141Z,-2.90
2022-12-15T23:26:19.963Z,-2.90
2022-12-15T23:28:47.738Z,-2.90
2022-12-15T23:31:15.763Z,-2.90
2022-12-15T23:33:43.754Z,-2.90
2022-12-15T23:36:12.605Z,-3.00
2022-12-15T23:38:40.689Z,-3.00
2022-12-15T23:41:15.273Z,-2.90
2022-12-15T23:43:43.053Z,-2.90
2022-12-15T23:46:10.938Z,-2.90
2022-12-15T23:48:40.871Z,-2.90
2022-12-15T23:51:10.505Z,-3.00
2022-12-15T23:53:39.675Z,-2.90
2022-12-15T23:56:11.519Z,-3.00
2022-12-15T23:58:40.464Z,-3.00
